Time;durP1;ratioP1;P1;durP2;ratioP2;P2;SDS_P1;SDS_P2;PMS_P1;PMS_P2;Temp;Humidity;BMP_temperature;BMP_pressure;BME280_temperature;BME280_humidity;BME280_pressure;Samples;Min_cycle;Max_cycle;Signal;HPM_P1;HPM_P2
2022/09/03 09:26:15;;;;;;;12.68;11.88;;;29.30;99.90;;;;;;5196046;23;20027;-91
2022/09/03 09:28:54;;;;;;;13.30;12.30;;;29.00;99.90;;;;;;4898564;29;20053;-88
2022/09/03 09:31:21;;;;;;;12.43;11.60;;;28.90;99.90;;;;;;4885137;29;20028;-90
2022/09/03 12:17:07;;;;;;;13.25;12.65;;;29.60;99.90;;;;;;5533374;23;20108;-94
2022/09/03 13:54:47;;;;;;;12.43;11.80;;;29.10;99.90;;;;;;5819280;23;20075;-93
2022/09/03 13:58:17;;;;;;;12.07;11.13;;;29.00;99.90;;;;;;4842962;29;20062;-91
2022/09/03 14:01:16;;;;;;;12.40;11.60;;;28.50;99.90;;;;;;4883935;29;20102;-93
2022/09/03 14:03:54;;;;;;;12.45;11.40;;;28.30;99.90;;;;;;4880757;29;20391;-92
2022/09/03 14:06:59;;;;;;;12.48;11.70;;;28.40;99.90;;;;;;4881267;29;20037;-92
2022/09/03 14:10:15;;;;;;;12.23;11.40;;;28.70;99.90;;;;;;4882674;29;20052;-91
2022/09/03 14:13:07;;;;;;;11.75;10.88;;;28.90;99.90;;;;;;4847052;29;20041;-94
2022/09/03 14:19:30;;;;;;;11.48;10.88;;;28.50;99.90;;;;;;4910527;23;20125;-92
2022/09/03 14:22:47;;;;;;;11.88;10.93;;;28.60;99.90;;;;;;4887910;29;20032;-93
2022/09/03 15:17:19;;;;;;;10.63;9.68;;;27.60;99.90;;;;;;1830609;23;20484;-92
2022/09/03 15:20:23;;;;;;;10.82;10.13;;;27.50;99.90;;;;;;4789563;29;20073;-92
2022/09/03 15:23:10;;;;;;;10.07;9.50;;;27.60;99.90;;;;;;4791946;29;20062;-92
2022/09/03 15:26:08;;;;;;;10.98;10.20;;;27.50;99.90;;;;;;4790789;29;20038;-92
2022/09/03 15:28:52;;;;;;;10.57;9.90;;;27.40;99.90;;;;;;4790974;29;20046;-92
2022/09/03 15:31:24;;;;;;;10.45;9.88;;;27.70;99.90;;;;;;4791075;29;20045;-92
2022/09/03 15:34:13;;;;;;;10.40;9.85;;;27.60;99.90;;;;;;4794530;29;20043;-92
2022/09/03 15:36:52;;;;;;;10.43;9.75;;;27.70;99.90;;;;;;4791791;29;20508;-91
2022/09/03 15:39:32;;;;;;;10.20;9.70;;;27.60;99.90;;;;;;4792733;29;20058;-92
2022/09/03 15:42:01;;;;;;;10.50;9.60;;;27.60;99.90;;;;;;4793129;29;20035;-91
2022/09/03 15:44:42;;;;;;;11.00;10.20;;;27.50;99.90;;;;;;4795360;29;20031;-93
2022/09/03 15:47:36;;;;;;;9.70;9.20;;;27.40;99.90;;;;;;4800122;29;20031;-92
2022/09/03 15:50:24;;;;;;;10.80;10.10;;;27.30;99.90;;;;;;4798090;29;20135;-93
2022/09/03 15:53:32;;;;;;;11.20;10.50;;;27.30;99.90;;;;;;4797596;29;20035;-93
2022/09/03 15:56:22;;;;;;;10.60;10.00;;;27.20;99.90;;;;;;4824614;29;20060;-93
2022/09/03 15:59:17;;;;;;;11.18;10.48;;;27.20;99.90;;;;;;4867594;29;20133;-93
2022/09/03 16:02:18;;;;;;;10.63;10.00;;;27.20;99.90;;;;;;4855174;29;20037;-92
2022/09/03 16:05:15;;;;;;;10.77;10.10;;;27.30;99.90;;;;;;4809442;29;20035;-94
2022/09/03 16:07:55;;;;;;;10.57;10.00;;;27.20;99.90;;;;;;4828536;29;20054;-92
2022/09/03 16:10:43;;;;;;;10.95;10.20;;;27.20;99.90;;;;;;4830588;29;20123;-92
2022/09/03 16:13:37;;;;;;;10.65;10.00;;;27.20;99.90;;;;;;4825615;29;20421;-92
2022/09/03 16:16:10;;;;;;;10.75;9.93;;;27.10;99.90;;;;;;4818425;29;20095;-92
2022/09/03 16:19:06;;;;;;;10.07;9.57;;;27.00;99.90;;;;;;4810576;29;20055;-92
2022/09/03 16:21:51;;;;;;;10.45;9.90;;;26.80;99.90;;;;;;4811688;29;20070;-93
2022/09/03 16:24:22;;;;;;;10.55;9.88;;;26.90;99.90;;;;;;4809020;29;20054;-93
2022/09/03 16:27:19;;;;;;;10.82;10.15;;;26.90;99.90;;;;;;4809290;29;20095;-93
2022/09/03 16:29:57;;;;;;;10.23;9.73;;;26.80;99.90;;;;;;4809017;29;20112;-93
2022/09/03 16:32:25;;;;;;;10.27;9.52;;;26.70;99.90;;;;;;4810837;29;20125;-92
2022/09/03 16:35:03;;;;;;;10.50;9.90;;;26.60;99.90;;;;;;4810541;29;20137;-91
2022/09/03 16:38:02;;;;;;;10.13;9.52;;;26.40;99.90;;;;;;4808099;29;20047;-90
2022/09/03 16:40:41;;;;;;;10.10;9.60;;;26.40;99.90;;;;;;4832485;29;20044;-91
2022/09/03 16:43:23;;;;;;;10.32;9.50;;;26.30;99.90;;;;;;4863985;29;20389;-93
2022/09/03 16:46:22;;;;;;;9.88;9.30;;;26.20;99.90;;;;;;4870857;29;20034;-92
2022/09/03 16:49:20;;;;;;;10.13;9.32;;;26.00;99.90;;;;;;4859490;29;20025;-94
2022/09/03 16:52:16;;;;;;;10.05;9.30;;;25.90;99.90;;;;;;4873707;29;20101;-93
2022/09/03 16:55:03;;;;;;;10.25;9.60;;;25.90;99.90;;;;;;4857278;29;20457;-92
2022/09/03 17:01:37;;;;;;;9.52;9.02;;;25.80;99.90;;;;;;4818216;29;20034;-91
2022/09/03 17:04:36;;;;;;;9.90;9.45;;;25.80;99.90;;;;;;4829001;29;20421;-92
2022/09/03 17:07:40;;;;;;;9.80;9.27;;;25.70;99.90;;;;;;4830889;29;20503;-92
2022/09/03 17:10:17;;;;;;;9.90;9.40;;;25.60;99.90;;;;;;4830877;29;20599;-91
2022/09/03 17:16:54;;;;;;;10.73;10.13;;;25.50;99.90;;;;;;4842415;29;20030;-92
2022/09/03 17:19:29;;;;;;;10.70;10.10;;;25.40;99.90;;;;;;4833369;29;20050;-93
2022/09/03 17:22:38;;;;;;;10.30;9.52;;;25.30;99.90;;;;;;4829038;29;20107;-92
2022/09/03 17:25:55;;;;;;;10.80;10.20;;;25.30;99.90;;;;;;4830251;29;20060;-92
2022/09/03 17:28:59;;;;;;;11.05;10.27;;;25.20;99.90;;;;;;4771203;30;20163;-92
2022/09/03 17:31:35;;;;;;;10.70;10.20;;;25.10;99.90;;;;;;4771561;30;20138;-93
2022/09/03 17:34:23;;;;;;;10.70;10.18;;;25.00;99.90;;;;;;4773172;30;20044;-94
2022/09/03 17:37:17;;;;;;;11.27;10.15;;;24.90;99.90;;;;;;4773439;30;20060;-93
